ACA weather

General Juan N Alvarez International Airport
Acapulco, Guerrero, Mexico

Public forecast

Using degrees Celsius for public forecast. Weather courtesy of forecast.io.

METAR (pilot weather report)

Retrieved 2019/04/21 15:46 UTC (31 minutes ago):

MMAA 211546Z 22005KT 5SM SKC 28/23 A3000 RMK HZY

TAF (pilot weather forecast)

Retrieved 2019/04/21 12:28 UTC (4 hours ago):

TAF MMAA 211124Z 2112/2218 03005KT 5SM HZ SKC TX29/2118Z TN21/2112Z FM211600 23010KT 6SM HZ SCT300 FM220300 03005KT 5SM HZ SCT300 FM221600 23010KT 6SM HZ SCT300